Dinsdale, Iowa
Current Conditions -  °F | °C
As of 2:54 AM on Friday 21 Nov 2014 (Local Time) from KALO Reporting Station
Clear Clear  
Wind Chill: -13°   Ceiling: Unl
Heat Index: -1°   Visibility: 10mi
Dew Point: -5°   Wind: 6mph
Humidity: 83%   Direction: 80°E
Pressure: 30.33"   Gusts: NA
Location:  42.2885°N, 92.5843°W
Report Text: KALO 210854Z 08005KT 10SM CLR M18/M21 A3033 RMK AO2 SLP292 T11831206 53003
Loading
Personal Weather Stations






























Interactive Weather Map New forecast layout! Learn more

10-Day Weather Forecast

Advertisements
Track Severe Weather on mobile